sensor_id;sensor_type;location;lat;lon;timestamp;P1;durP1;ratioP1;P2;durP2;ratioP2
41709;SDS011;59402;48.396;-4.472;2023-01-05T00:00:59;40.37;;;6.10;;
41709;SDS011;59402;48.396;-4.472;2023-01-05T00:03:26;25.10;;;6.20;;
41709;SDS011;59402;48.396;-4.472;2023-01-05T00:05:52;28.38;;;5.50;;
41709;SDS011;59402;48.396;-4.472;2023-01-05T00:08:18;29.80;;;5.47;;
41709;SDS011;59402;48.396;-4.472;2023-01-05T00:10:43;25.60;;;5.70;;
41709;SDS011;59402;48.396;-4.472;2023-01-05T00:13:28;55.08;;;7.55;;
41709;SDS011;59402;48.396;-4.472;2023-01-05T00:16:12;46.30;;;8.80;;
41709;SDS011;59402;48.396;-4.472;2023-01-05T00:18:57;65.30;;;8.30;;
41709;SDS011;59402;48.396;-4.472;2023-01-05T00:21:49;46.08;;;9.30;;
41709;SDS011;59402;48.396;-4.472;2023-01-05T00:24:33;36.67;;;9.20;;
41709;SDS011;59402;48.396;-4.472;2023-01-05T00:26:59;53.38;;;9.18;;
41709;SDS011;59402;48.396;-4.472;2023-01-05T00:29:24;56.25;;;9.95;;
41709;SDS011;59402;48.396;-4.472;2023-01-05T00:31:50;59.58;;;9.90;;
41709;SDS011;59402;48.396;-4.472;2023-01-05T00:34:16;54.88;;;9.27;;
41709;SDS011;59402;48.396;-4.472;2023-01-05T00:36:42;57.55;;;9.68;;
41709;SDS011;59402;48.396;-4.472;2023-01-05T00:39:07;59.42;;;10.57;;
41709;SDS011;59402;48.396;-4.472;2023-01-05T00:41:33;65.50;;;11.30;;
41709;SDS011;59402;48.396;-4.472;2023-01-05T00:44:00;64.30;;;10.53;;
41709;SDS011;59402;48.396;-4.472;2023-01-05T00:46:25;80.50;;;12.45;;
41709;SDS011;59402;48.396;-4.472;2023-01-05T00:48:51;121.60;;;13.05;;
41709;SDS011;59402;48.396;-4.472;2023-01-05T00:51:17;108.70;;;11.88;;
41709;SDS011;59402;48.396;-4.472;2023-01-05T00:53:43;104.63;;;12.63;;
41709;SDS011;59402;48.396;-4.472;2023-01-05T00:56:08;157.27;;;13.07;;
41709;SDS011;59402;48.396;-4.472;2023-01-05T00:58:34;88.93;;;11.63;;
41709;SDS011;59402;48.396;-4.472;2023-01-05T01:01:00;124.47;;;11.20;;
41709;SDS011;59402;48.396;-4.472;2023-01-05T01:03:25;99.72;;;10.98;;
41709;SDS011;59402;48.396;-4.472;2023-01-05T01:05:56;113.30;;;10.18;;
41709;SDS011;59402;48.396;-4.472;2023-01-05T01:08:22;103.25;;;9.55;;
41709;SDS011;59402;48.396;-4.472;2023-01-05T01:10:48;56.50;;;7.07;;
41709;SDS011;59402;48.396;-4.472;2023-01-05T01:13:14;66.82;;;8.52;;
41709;SDS011;59402;48.396;-4.472;2023-01-05T01:15:40;72.10;;;8.32;;
41709;SDS011;59402;48.396;-4.472;2023-01-05T01:18:05;57.97;;;8.23;;
41709;SDS011;59402;48.396;-4.472;2023-01-05T01:20:31;80.32;;;9.13;;
41709;SDS011;59402;48.396;-4.472;2023-01-05T01:22:57;62.20;;;8.18;;
41709;SDS011;59402;48.396;-4.472;2023-01-05T01:25:25;121.50;;;9.15;;
41709;SDS011;59402;48.396;-4.472;2023-01-05T01:27:51;73.10;;;8.00;;
41709;SDS011;59402;48.396;-4.472;2023-01-05T01:30:17;67.32;;;7.43;;
41709;SDS011;59402;48.396;-4.472;2023-01-05T01:32:44;86.13;;;7.93;;
41709;SDS011;59402;48.396;-4.472;2023-01-05T01:35:09;74.72;;;8.02;;
41709;SDS011;59402;48.396;-4.472;2023-01-05T01:37:35;45.92;;;5.93;;
41709;SDS011;59402;48.396;-4.472;2023-01-05T01:40:01;54.58;;;6.25;;
41709;SDS011;59402;48.396;-4.472;2023-01-05T01:42:28;42.65;;;6.63;;
41709;SDS011;59402;48.396;-4.472;2023-01-05T01:44:58;63.30;;;8.45;;
41709;SDS011;59402;48.396;-4.472;2023-01-05T01:50:21;78.03;;;9.50;;
41709;SDS011;59402;48.396;-4.472;2023-01-05T01:52:54;73.60;;;9.75;;
41709;SDS011;59402;48.396;-4.472;2023-01-05T01:55:30;72.47;;;8.98;;
41709;SDS011;59402;48.396;-4.472;2023-01-05T01:57:57;82.35;;;9.30;;
41709;SDS011;59402;48.396;-4.472;2023-01-05T02:00:24;85.15;;;9.70;;
41709;SDS011;59402;48.396;-4.472;2023-01-05T02:02:51;78.72;;;9.65;;
41709;SDS011;59402;48.396;-4.472;2023-01-05T02:05:21;90.18;;;11.55;;
41709;SDS011;59402;48.396;-4.472;2023-01-05T02:07:51;86.20;;;9.38;;
41709;SDS011;59402;48.396;-4.472;2023-01-05T02:10:17;78.85;;;9.80;;
41709;SDS011;59402;48.396;-4.472;2023-01-05T02:15:49;88.53;;;11.95;;
41709;SDS011;59402;48.396;-4.472;2023-01-05T02:35:39;68.82;;;9.40;;
41709;SDS011;59402;48.396;-4.472;2023-01-05T02:38:10;73.70;;;9.00;;
41709;SDS011;59402;48.396;-4.472;2023-01-05T02:40:41;87.22;;;9.85;;
41709;SDS011;59402;48.396;-4.472;2023-01-05T02:43:12;69.25;;;9.65;;
41709;SDS011;59402;48.396;-4.472;2023-01-05T02:45:38;84.30;;;9.73;;
41709;SDS011;59402;48.396;-4.472;2023-01-05T02:48:04;72.95;;;8.40;;
41709;SDS011;59402;48.396;-4.472;2023-01-05T02:50:31;66.00;;;7.95;;
41709;SDS011;59402;48.396;-4.472;2023-01-05T02:55:55;81.30;;;8.88;;
41709;SDS011;59402;48.396;-4.472;2023-01-05T02:58:38;65.55;;;8.98;;
41709;SDS011;59402;48.396;-4.472;2023-01-05T03:04:36;65.38;;;9.43;;
41709;SDS011;59402;48.396;-4.472;2023-01-05T03:06:47;61.47;;;7.88;;
41709;SDS011;59402;48.396;-4.472;2023-01-05T03:09:25;59.15;;;7.97;;
41709;SDS011;59402;48.396;-4.472;2023-01-05T03:12:37;73.50;;;10.15;;
41709;SDS011;59402;48.396;-4.472;2023-01-05T03:15:15;78.47;;;8.40;;
41709;SDS011;59402;48.396;-4.472;2023-01-05T03:17:59;65.63;;;7.90;;
41709;SDS011;59402;48.396;-4.472;2023-01-05T03:20:30;75.72;;;8.00;;
41709;SDS011;59402;48.396;-4.472;2023-01-05T03:22:57;75.90;;;9.27;;
41709;SDS011;59402;48.396;-4.472;2023-01-05T03:25:43;62.47;;;7.45;;
41709;SDS011;59402;48.396;-4.472;2023-01-05T03:28:37;61.33;;;7.40;;
41709;SDS011;59402;48.396;-4.472;2023-01-05T03:31:31;66.15;;;7.88;;
41709;SDS011;59402;48.396;-4.472;2023-01-05T03:37:14;70.82;;;7.72;;
41709;SDS011;59402;48.396;-4.472;2023-01-05T03:39:42;64.18;;;7.00;;
41709;SDS011;59402;48.396;-4.472;2023-01-05T03:44:39;69.07;;;8.77;;
41709;SDS011;59402;48.396;-4.472;2023-01-05T03:47:09;66.10;;;8.63;;
41709;SDS011;59402;48.396;-4.472;2023-01-05T03:49:36;61.90;;;8.60;;
41709;SDS011;59402;48.396;-4.472;2023-01-05T03:52:03;62.75;;;8.68;;
41709;SDS011;59402;48.396;-4.472;2023-01-05T03:54:29;65.45;;;8.35;;
41709;SDS011;59402;48.396;-4.472;2023-01-05T03:56:55;55.20;;;8.00;;
41709;SDS011;59402;48.396;-4.472;2023-01-05T03:59:21;60.60;;;7.03;;
41709;SDS011;59402;48.396;-4.472;2023-01-05T04:01:48;70.03;;;7.30;;
41709;SDS011;59402;48.396;-4.472;2023-01-05T04:04:13;67.70;;;8.88;;
41709;SDS011;59402;48.396;-4.472;2023-01-05T04:06:39;75.65;;;7.90;;
41709;SDS011;59402;48.396;-4.472;2023-01-05T04:09:07;66.88;;;8.40;;
41709;SDS011;59402;48.396;-4.472;2023-01-05T04:11:32;65.63;;;7.93;;
41709;SDS011;59402;48.396;-4.472;2023-01-05T04:14:02;80.90;;;8.73;;
41709;SDS011;59402;48.396;-4.472;2023-01-05T04:16:30;61.38;;;7.75;;
41709;SDS011;59402;48.396;-4.472;2023-01-05T04:18:59;61.60;;;8.05;;
41709;SDS011;59402;48.396;-4.472;2023-01-05T04:21:25;65.80;;;8.98;;
41709;SDS011;59402;48.396;-4.472;2023-01-05T04:23:53;73.22;;;7.72;;
41709;SDS011;59402;48.396;-4.472;2023-01-05T04:26:19;67.95;;;7.88;;
41709;SDS011;59402;48.396;-4.472;2023-01-05T04:28:47;59.80;;;8.05;;
41709;SDS011;59402;48.396;-4.472;2023-01-05T04:31:15;62.05;;;7.38;;
41709;SDS011;59402;48.396;-4.472;2023-01-05T04:33:42;47.80;;;7.18;;
41709;SDS011;59402;48.396;-4.472;2023-01-05T04:36:12;61.45;;;7.03;;
41709;SDS011;59402;48.396;-4.472;2023-01-05T04:38:38;64.35;;;7.45;;
41709;SDS011;59402;48.396;-4.472;2023-01-05T04:41:05;74.10;;;7.95;;
41709;SDS011;59402;48.396;-4.472;2023-01-05T04:43:31;63.78;;;9.20;;
41709;SDS011;59402;48.396;-4.472;2023-01-05T04:45:59;61.10;;;8.15;;
41709;SDS011;59402;48.396;-4.472;2023-01-05T04:48:26;53.20;;;7.90;;
41709;SDS011;59402;48.396;-4.472;2023-01-05T04:50:53;68.70;;;7.55;;
41709;SDS011;59402;48.396;-4.472;2023-01-05T04:53:25;62.47;;;7.95;;
41709;SDS011;59402;48.396;-4.472;2023-01-05T04:55:51;69.35;;;8.20;;
41709;SDS011;59402;48.396;-4.472;2023-01-05T04:58:18;67.20;;;8.32;;
41709;SDS011;59402;48.396;-4.472;2023-01-05T05:00:45;64.15;;;8.38;;
41709;SDS011;59402;48.396;-4.472;2023-01-05T05:03:13;54.90;;;8.68;;
41709;SDS011;59402;48.396;-4.472;2023-01-05T05:05:38;60.13;;;7.95;;
41709;SDS011;59402;48.396;-4.472;2023-01-05T05:08:07;67.68;;;7.35;;
41709;SDS011;59402;48.396;-4.472;2023-01-05T05:10:34;63.92;;;7.00;;
41709;SDS011;59402;48.396;-4.472;2023-01-05T05:13:00;64.55;;;8.05;;
41709;SDS011;59402;48.396;-4.472;2023-01-05T05:15:27;59.83;;;7.18;;
41709;SDS011;59402;48.396;-4.472;2023-01-05T05:17:53;70.50;;;7.97;;
41709;SDS011;59402;48.396;-4.472;2023-01-05T05:20:19;50.42;;;6.60;;
41709;SDS011;59402;48.396;-4.472;2023-01-05T05:22:45;62.00;;;6.95;;
41709;SDS011;59402;48.396;-4.472;2023-01-05T05:25:14;63.85;;;8.50;;
41709;SDS011;59402;48.396;-4.472;2023-01-05T05:27:43;73.30;;;7.80;;
41709;SDS011;59402;48.396;-4.472;2023-01-05T05:30:09;60.88;;;6.72;;
41709;SDS011;59402;48.396;-4.472;2023-01-05T05:32:35;60.67;;;7.00;;
41709;SDS011;59402;48.396;-4.472;2023-01-05T05:35:01;68.40;;;7.57;;
41709;SDS011;59402;48.396;-4.472;2023-01-05T05:37:27;58.38;;;6.70;;
41709;SDS011;59402;48.396;-4.472;2023-01-05T05:39:52;60.65;;;7.28;;
41709;SDS011;59402;48.396;-4.472;2023-01-05T05:42:18;68.25;;;7.72;;
41709;SDS011;59402;48.396;-4.472;2023-01-05T05:44:44;57.47;;;7.93;;
41709;SDS011;59402;48.396;-4.472;2023-01-05T05:47:09;55.85;;;7.10;;
41709;SDS011;59402;48.396;-4.472;2023-01-05T05:49:35;46.05;;;7.03;;
41709;SDS011;59402;48.396;-4.472;2023-01-05T05:52:01;64.70;;;8.57;;
41709;SDS011;59402;48.396;-4.472;2023-01-05T05:54:26;64.70;;;8.40;;
41709;SDS011;59402;48.396;-4.472;2023-01-05T05:56:52;59.70;;;7.15;;
41709;SDS011;59402;48.396;-4.472;2023-01-05T05:59:18;56.03;;;6.28;;
41709;SDS011;59402;48.396;-4.472;2023-01-05T06:01:43;49.92;;;6.30;;
41709;SDS011;59402;48.396;-4.472;2023-01-05T06:04:09;57.72;;;6.50;;
41709;SDS011;59402;48.396;-4.472;2023-01-05T06:06:35;50.72;;;6.15;;
41709;SDS011;59402;48.396;-4.472;2023-01-05T06:09:01;44.38;;;5.82;;
41709;SDS011;59402;48.396;-4.472;2023-01-05T06:11:27;41.00;;;6.78;;
41709;SDS011;59402;48.396;-4.472;2023-01-05T06:13:53;52.55;;;5.85;;
41709;SDS011;59402;48.396;-4.472;2023-01-05T06:16:18;49.22;;;5.85;;
41709;SDS011;59402;48.396;-4.472;2023-01-05T06:18:44;43.03;;;6.10;;
41709;SDS011;59402;48.396;-4.472;2023-01-05T06:21:10;48.35;;;6.00;;
41709;SDS011;59402;48.396;-4.472;2023-01-05T06:23:36;39.97;;;6.25;;
41709;SDS011;59402;48.396;-4.472;2023-01-05T06:26:01;45.15;;;6.60;;
41709;SDS011;59402;48.396;-4.472;2023-01-05T06:28:27;33.88;;;5.20;;
41709;SDS011;59402;48.396;-4.472;2023-01-05T06:30:53;60.58;;;5.47;;
41709;SDS011;59402;48.396;-4.472;2023-01-05T06:33:18;41.03;;;5.40;;
41709;SDS011;59402;48.396;-4.472;2023-01-05T06:35:44;34.20;;;5.30;;
41709;SDS011;59402;48.396;-4.472;2023-01-05T06:38:10;43.75;;;5.32;;
41709;SDS011;59402;48.396;-4.472;2023-01-05T06:40:37;36.60;;;4.97;;
41709;SDS011;59402;48.396;-4.472;2023-01-05T06:43:04;42.35;;;5.18;;
41709;SDS011;59402;48.396;-4.472;2023-01-05T06:45:29;41.75;;;5.35;;
41709;SDS011;59402;48.396;-4.472;2023-01-05T06:47:55;39.83;;;4.43;;
41709;SDS011;59402;48.396;-4.472;2023-01-05T06:50:23;30.58;;;4.88;;
41709;SDS011;59402;48.396;-4.472;2023-01-05T06:52:48;39.22;;;4.40;;
41709;SDS011;59402;48.396;-4.472;2023-01-05T06:55:14;42.22;;;5.68;;
41709;SDS011;59402;48.396;-4.472;2023-01-05T06:57:40;51.80;;;5.05;;
41709;SDS011;59402;48.396;-4.472;2023-01-05T07:00:07;37.92;;;4.90;;
41709;SDS011;59402;48.396;-4.472;2023-01-05T07:02:34;39.10;;;5.90;;
41709;SDS011;59402;48.396;-4.472;2023-01-05T07:05:00;36.15;;;4.32;;
41709;SDS011;59402;48.396;-4.472;2023-01-05T07:07:25;34.25;;;4.70;;
41709;SDS011;59402;48.396;-4.472;2023-01-05T07:09:51;40.53;;;5.00;;
41709;SDS011;59402;48.396;-4.472;2023-01-05T07:12:17;35.70;;;4.95;;
41709;SDS011;59402;48.396;-4.472;2023-01-05T07:14:43;40.83;;;5.20;;
41709;SDS011;59402;48.396;-4.472;2023-01-05T07:17:09;45.80;;;5.50;;
41709;SDS011;59402;48.396;-4.472;2023-01-05T07:19:36;39.58;;;5.38;;
41709;SDS011;59402;48.396;-4.472;2023-01-05T07:22:02;38.45;;;5.03;;
41709;SDS011;59402;48.396;-4.472;2023-01-05T07:24:28;35.67;;;4.45;;
41709;SDS011;59402;48.396;-4.472;2023-01-05T07:26:54;29.63;;;4.38;;
41709;SDS011;59402;48.396;-4.472;2023-01-05T07:29:20;41.53;;;6.22;;
41709;SDS011;59402;48.396;-4.472;2023-01-05T07:31:45;34.33;;;4.85;;
41709;SDS011;59402;48.396;-4.472;2023-01-05T07:34:16;33.53;;;4.82;;
41709;SDS011;59402;48.396;-4.472;2023-01-05T07:36:46;35.70;;;3.95;;
41709;SDS011;59402;48.396;-4.472;2023-01-05T07:39:11;33.90;;;4.32;;
41709;SDS011;59402;48.396;-4.472;2023-01-05T07:41:37;31.00;;;3.88;;
41709;SDS011;59402;48.396;-4.472;2023-01-05T07:44:04;41.88;;;5.10;;
41709;SDS011;59402;48.396;-4.472;2023-01-05T07:46:29;33.15;;;4.13;;
41709;SDS011;59402;48.396;-4.472;2023-01-05T07:48:55;32.10;;;4.35;;
41709;SDS011;59402;48.396;-4.472;2023-01-05T07:51:22;30.48;;;4.20;;
41709;SDS011;59402;48.396;-4.472;2023-01-05T07:53:48;29.80;;;4.55;;
41709;SDS011;59402;48.396;-4.472;2023-01-05T07:56:14;28.50;;;3.92;;
41709;SDS011;59402;48.396;-4.472;2023-01-05T07:58:39;29.80;;;4.07;;
41709;SDS011;59402;48.396;-4.472;2023-01-05T08:01:06;31.67;;;3.88;;
41709;SDS011;59402;48.396;-4.472;2023-01-05T08:03:34;33.45;;;5.25;;
41709;SDS011;59402;48.396;-4.472;2023-01-05T08:06:07;33.95;;;4.30;;
41709;SDS011;59402;48.396;-4.472;2023-01-05T08:08:34;27.52;;;4.55;;
41709;SDS011;59402;48.396;-4.472;2023-01-05T08:11:02;31.17;;;4.30;;
41709;SDS011;59402;48.396;-4.472;2023-01-05T08:13:32;31.75;;;3.85;;
41709;SDS011;59402;48.396;-4.472;2023-01-05T08:16:17;26.40;;;4.18;;
41709;SDS011;59402;48.396;-4.472;2023-01-05T08:18:42;30.50;;;3.97;;
41709;SDS011;59402;48.396;-4.472;2023-01-05T08:21:08;24.33;;;3.72;;
41709;SDS011;59402;48.396;-4.472;2023-01-05T08:23:34;29.35;;;4.00;;
41709;SDS011;59402;48.396;-4.472;2023-01-05T08:26:04;34.17;;;4.65;;
41709;SDS011;59402;48.396;-4.472;2023-01-05T08:28:37;25.60;;;4.40;;
41709;SDS011;59402;48.396;-4.472;2023-01-05T08:31:05;36.53;;;5.80;;
41709;SDS011;59402;48.396;-4.472;2023-01-05T08:33:35;34.97;;;4.78;;
41709;SDS011;59402;48.396;-4.472;2023-01-05T08:36:06;36.85;;;4.80;;
41709;SDS011;59402;48.396;-4.472;2023-01-05T08:38:33;33.75;;;4.55;;
41709;SDS011;59402;48.396;-4.472;2023-01-05T08:40:59;33.40;;;5.28;;
41709;SDS011;59402;48.396;-4.472;2023-01-05T08:43:25;37.25;;;5.00;;
41709;SDS011;59402;48.396;-4.472;2023-01-05T08:45:50;30.95;;;4.30;;
41709;SDS011;59402;48.396;-4.472;2023-01-05T08:48:16;30.45;;;4.35;;
41709;SDS011;59402;48.396;-4.472;2023-01-05T08:50:42;35.03;;;4.85;;
41709;SDS011;59402;48.396;-4.472;2023-01-05T08:53:08;32.25;;;5.07;;
41709;SDS011;59402;48.396;-4.472;2023-01-05T08:55:34;28.05;;;4.25;;
41709;SDS011;59402;48.396;-4.472;2023-01-05T08:58:00;28.17;;;4.13;;
41709;SDS011;59402;48.396;-4.472;2023-01-05T09:00:25;24.20;;;4.45;;
41709;SDS011;59402;48.396;-4.472;2023-01-05T09:02:51;30.42;;;3.78;;
41709;SDS011;59402;48.396;-4.472;2023-01-05T09:05:17;27.10;;;4.20;;
41709;SDS011;59402;48.396;-4.472;2023-01-05T09:07:43;33.80;;;4.55;;
41709;SDS011;59402;48.396;-4.472;2023-01-05T09:10:09;30.75;;;3.92;;
41709;SDS011;59402;48.396;-4.472;2023-01-05T09:12:35;31.33;;;4.50;;
41709;SDS011;59402;48.396;-4.472;2023-01-05T09:15:02;26.33;;;3.97;;
41709;SDS011;59402;48.396;-4.472;2023-01-05T09:17:28;27.95;;;4.32;;
41709;SDS011;59402;48.396;-4.472;2023-01-05T09:19:54;30.25;;;4.40;;
41709;SDS011;59402;48.396;-4.472;2023-01-05T09:22:20;30.05;;;3.83;;
41709;SDS011;59402;48.396;-4.472;2023-01-05T09:24:46;35.10;;;4.97;;
41709;SDS011;59402;48.396;-4.472;2023-01-05T09:27:12;30.60;;;3.78;;
41709;SDS011;59402;48.396;-4.472;2023-01-05T09:29:37;29.10;;;3.83;;
41709;SDS011;59402;48.396;-4.472;2023-01-05T09:32:04;27.33;;;3.55;;
41709;SDS011;59402;48.396;-4.472;2023-01-05T09:34:30;32.08;;;4.05;;
41709;SDS011;59402;48.396;-4.472;2023-01-05T09:36:56;31.35;;;4.05;;
41709;SDS011;59402;48.396;-4.472;2023-01-05T09:39:22;31.00;;;3.92;;
41709;SDS011;59402;48.396;-4.472;2023-01-05T09:46:58;28.92;;;4.32;;
41709;SDS011;59402;48.396;-4.472;2023-01-05T09:49:29;30.58;;;3.80;;
41709;SDS011;59402;48.396;-4.472;2023-01-05T09:52:03;26.95;;;4.22;;
41709;SDS011;59402;48.396;-4.472;2023-01-05T09:54:33;28.38;;;3.55;;
41709;SDS011;59402;48.396;-4.472;2023-01-05T09:56:59;21.50;;;3.17;;
41709;SDS011;59402;48.396;-4.472;2023-01-05T09:59:26;23.52;;;2.80;;
41709;SDS011;59402;48.396;-4.472;2023-01-05T10:01:54;22.35;;;3.17;;
41709;SDS011;59402;48.396;-4.472;2023-01-05T10:04:23;20.98;;;2.92;;
41709;SDS011;59402;48.396;-4.472;2023-01-05T10:06:51;14.10;;;2.42;;
41709;SDS011;59402;48.396;-4.472;2023-01-05T10:09:21;16.48;;;1.85;;
41709;SDS011;59402;48.396;-4.472;2023-01-05T10:11:54;14.38;;;2.42;;
41709;SDS011;59402;48.396;-4.472;2023-01-05T10:14:42;13.65;;;2.17;;
41709;SDS011;59402;48.396;-4.472;2023-01-05T10:17:15;13.07;;;1.67;;
41709;SDS011;59402;48.396;-4.472;2023-01-05T10:19:50;12.77;;;2.30;;
41709;SDS011;59402;48.396;-4.472;2023-01-05T10:25:01;16.33;;;3.25;;
41709;SDS011;59402;48.396;-4.472;2023-01-05T10:33:14;13.38;;;1.60;;
41709;SDS011;59402;48.396;-4.472;2023-01-05T10:43:51;16.60;;;2.83;;
41709;SDS011;59402;48.396;-4.472;2023-01-05T10:46:21;15.35;;;2.25;;
41709;SDS011;59402;48.396;-4.472;2023-01-05T10:48:46;12.38;;;2.20;;
41709;SDS011;59402;48.396;-4.472;2023-01-05T10:51:12;12.60;;;2.05;;
41709;SDS011;59402;48.396;-4.472;2023-01-05T10:53:39;18.60;;;2.78;;
41709;SDS011;59402;48.396;-4.472;2023-01-05T10:58:40;17.98;;;2.50;;
41709;SDS011;59402;48.396;-4.472;2023-01-05T11:01:16;14.30;;;2.15;;
41709;SDS011;59402;48.396;-4.472;2023-01-05T11:04:11;17.27;;;2.30;;
41709;SDS011;59402;48.396;-4.472;2023-01-05T11:09:13;14.10;;;2.70;;
41709;SDS011;59402;48.396;-4.472;2023-01-05T11:11:41;18.65;;;2.33;;
41709;SDS011;59402;48.396;-4.472;2023-01-05T11:14:13;14.25;;;1.98;;
41709;SDS011;59402;48.396;-4.472;2023-01-05T11:16:44;14.80;;;2.40;;
41709;SDS011;59402;48.396;-4.472;2023-01-05T11:19:15;12.30;;;1.80;;
41709;SDS011;59402;48.396;-4.472;2023-01-05T11:21:42;14.15;;;1.63;;
41709;SDS011;59402;48.396;-4.472;2023-01-05T11:24:31;13.77;;;1.88;;
41709;SDS011;59402;48.396;-4.472;2023-01-05T11:26:57;15.52;;;2.08;;
41709;SDS011;59402;48.396;-4.472;2023-01-05T11:29:29;10.98;;;1.67;;
41709;SDS011;59402;48.396;-4.472;2023-01-05T11:31:59;15.27;;;2.00;;
41709;SDS011;59402;48.396;-4.472;2023-01-05T11:37:06;11.50;;;1.63;;
41709;SDS011;59402;48.396;-4.472;2023-01-05T11:39:49;14.27;;;1.88;;
41709;SDS011;59402;48.396;-4.472;2023-01-05T11:47:21;15.00;;;1.67;;
41709;SDS011;59402;48.396;-4.472;2023-01-05T11:49:56;9.35;;;1.85;;
41709;SDS011;59402;48.396;-4.472;2023-01-05T11:52:44;10.75;;;1.40;;
41709;SDS011;59402;48.396;-4.472;2023-01-05T12:03:35;10.85;;;1.92;;
41709;SDS011;59402;48.396;-4.472;2023-01-05T12:17:15;15.80;;;2.35;;
41709;SDS011;59402;48.396;-4.472;2023-01-05T12:19:50;15.00;;;2.13;;
41709;SDS011;59402;48.396;-4.472;2023-01-05T12:27:43;13.43;;;1.70;;
41709;SDS011;59402;48.396;-4.472;2023-01-05T12:49:46;10.15;;;1.83;;
41709;SDS011;59402;48.396;-4.472;2023-01-05T12:55:34;10.57;;;1.48;;
41709;SDS011;59402;48.396;-4.472;2023-01-05T12:58:03;15.07;;;2.08;;
41709;SDS011;59402;48.396;-4.472;2023-01-05T13:00:37;9.95;;;1.35;;
41709;SDS011;59402;48.396;-4.472;2023-01-05T13:03:15;14.85;;;1.67;;
41709;SDS011;59402;48.396;-4.472;2023-01-05T13:08:28;14.00;;;2.17;;
41709;SDS011;59402;48.396;-4.472;2023-01-05T13:13:59;13.75;;;1.98;;
41709;SDS011;59402;48.396;-4.472;2023-01-05T13:16:33;12.10;;;1.65;;
41709;SDS011;59402;48.396;-4.472;2023-01-05T13:19:20;14.63;;;2.08;;
41709;SDS011;59402;48.396;-4.472;2023-01-05T13:22:00;14.38;;;2.13;;
41709;SDS011;59402;48.396;-4.472;2023-01-05T13:24:33;16.33;;;2.22;;
41709;SDS011;59402;48.396;-4.472;2023-01-05T13:27:02;12.20;;;2.08;;
41709;SDS011;59402;48.396;-4.472;2023-01-05T13:29:29;14.85;;;2.45;;
41709;SDS011;59402;48.396;-4.472;2023-01-05T13:54:01;8.80;;;1.30;;
41709;SDS011;59402;48.396;-4.472;2023-01-05T13:56:29;11.85;;;1.30;;
41709;SDS011;59402;48.396;-4.472;2023-01-05T13:59:15;10.02;;;1.23;;
41709;SDS011;59402;48.396;-4.472;2023-01-05T14:01:52;8.23;;;1.52;;
41709;SDS011;59402;48.396;-4.472;2023-01-05T14:04:30;12.00;;;1.95;;
41709;SDS011;59402;48.396;-4.472;2023-01-05T14:09:26;11.75;;;1.70;;
41709;SDS011;59402;48.396;-4.472;2023-01-05T14:22:58;10.25;;;1.60;;
41709;SDS011;59402;48.396;-4.472;2023-01-05T14:36:33;9.23;;;1.58;;
41709;SDS011;59402;48.396;-4.472;2023-01-05T14:42:03;9.32;;;1.88;;
41709;SDS011;59402;48.396;-4.472;2023-01-05T14:44:35;10.45;;;1.65;;
41709;SDS011;59402;48.396;-4.472;2023-01-05T14:47:32;10.82;;;1.60;;
41709;SDS011;59402;48.396;-4.472;2023-01-05T14:50:05;9.73;;;1.52;;
41709;SDS011;59402;48.396;-4.472;2023-01-05T14:55:39;15.13;;;2.03;;
41709;SDS011;59402;48.396;-4.472;2023-01-05T15:06:27;10.75;;;2.20;;
41709;SDS011;59402;48.396;-4.472;2023-01-05T15:17:36;14.60;;;1.98;;
41709;SDS011;59402;48.396;-4.472;2023-01-05T15:23:00;13.23;;;1.90;;
41709;SDS011;59402;48.396;-4.472;2023-01-05T15:28:37;16.52;;;2.65;;
41709;SDS011;59402;48.396;-4.472;2023-01-05T15:34:15;16.00;;;2.03;;
41709;SDS011;59402;48.396;-4.472;2023-01-05T15:39:36;16.38;;;2.05;;
41709;SDS011;59402;48.396;-4.472;2023-01-05T15:42:08;15.20;;;2.55;;
41709;SDS011;59402;48.396;-4.472;2023-01-05T15:44:38;17.48;;;2.30;;
41709;SDS011;59402;48.396;-4.472;2023-01-05T15:47:09;19.17;;;1.90;;
41709;SDS011;59402;48.396;-4.472;2023-01-05T15:49:35;14.52;;;2.03;;
41709;SDS011;59402;48.396;-4.472;2023-01-05T15:52:02;14.88;;;2.60;;
41709;SDS011;59402;48.396;-4.472;2023-01-05T15:54:30;16.17;;;2.13;;
41709;SDS011;59402;48.396;-4.472;2023-01-05T15:56:57;13.93;;;2.50;;
41709;SDS011;59402;48.396;-4.472;2023-01-05T15:59:28;19.08;;;3.03;;
41709;SDS011;59402;48.396;-4.472;2023-01-05T16:02:20;16.35;;;2.58;;
41709;SDS011;59402;48.396;-4.472;2023-01-05T16:05:06;17.35;;;2.83;;
41709;SDS011;59402;48.396;-4.472;2023-01-05T16:07:33;22.17;;;4.32;;
41709;SDS011;59402;48.396;-4.472;2023-01-05T16:09:58;15.82;;;2.78;;
41709;SDS011;59402;48.396;-4.472;2023-01-05T16:12:24;14.52;;;3.08;;
41709;SDS011;59402;48.396;-4.472;2023-01-05T16:14:52;19.13;;;3.00;;
41709;SDS011;59402;48.396;-4.472;2023-01-05T16:17:22;24.45;;;3.40;;
41709;SDS011;59402;48.396;-4.472;2023-01-05T16:19:56;14.98;;;2.15;;
41709;SDS011;59402;48.396;-4.472;2023-01-05T16:27:43;15.60;;;2.10;;
41709;SDS011;59402;48.396;-4.472;2023-01-05T16:30:31;14.38;;;2.20;;
41709;SDS011;59402;48.396;-4.472;2023-01-05T16:33:32;14.15;;;2.40;;
41709;SDS011;59402;48.396;-4.472;2023-01-05T16:36:07;15.52;;;2.88;;
41709;SDS011;59402;48.396;-4.472;2023-01-05T16:38:42;16.48;;;2.60;;
41709;SDS011;59402;48.396;-4.472;2023-01-05T16:43:42;21.58;;;3.22;;
41709;SDS011;59402;48.396;-4.472;2023-01-05T16:46:28;21.23;;;3.28;;
41709;SDS011;59402;48.396;-4.472;2023-01-05T16:51:50;17.15;;;2.58;;
41709;SDS011;59402;48.396;-4.472;2023-01-05T17:02:14;13.57;;;2.47;;
41709;SDS011;59402;48.396;-4.472;2023-01-05T17:04:55;15.75;;;2.58;;
41709;SDS011;59402;48.396;-4.472;2023-01-05T17:07:21;16.65;;;2.75;;
41709;SDS011;59402;48.396;-4.472;2023-01-05T17:09:47;20.98;;;3.15;;
41709;SDS011;59402;48.396;-4.472;2023-01-05T17:12:13;21.60;;;2.80;;
41709;SDS011;59402;48.396;-4.472;2023-01-05T17:14:39;20.58;;;2.47;;
41709;SDS011;59402;48.396;-4.472;2023-01-05T17:19:36;14.45;;;2.00;;
41709;SDS011;59402;48.396;-4.472;2023-01-05T17:22:02;20.55;;;3.00;;
41709;SDS011;59402;48.396;-4.472;2023-01-05T17:24:29;20.23;;;2.95;;
41709;SDS011;59402;48.396;-4.472;2023-01-05T17:26:56;18.67;;;3.03;;
41709;SDS011;59402;48.396;-4.472;2023-01-05T17:29:27;16.95;;;3.13;;
41709;SDS011;59402;48.396;-4.472;2023-01-05T17:31:55;21.40;;;4.03;;
41709;SDS011;59402;48.396;-4.472;2023-01-05T17:34:21;20.05;;;3.55;;
41709;SDS011;59402;48.396;-4.472;2023-01-05T17:36:48;21.45;;;2.97;;
41709;SDS011;59402;48.396;-4.472;2023-01-05T17:39:15;14.90;;;2.35;;
41709;SDS011;59402;48.396;-4.472;2023-01-05T17:41:42;16.33;;;3.00;;
41709;SDS011;59402;48.396;-4.472;2023-01-05T17:44:08;18.00;;;3.30;;
41709;SDS011;59402;48.396;-4.472;2023-01-05T17:46:35;14.27;;;2.63;;
41709;SDS011;59402;48.396;-4.472;2023-01-05T17:49:04;13.85;;;2.50;;
41709;SDS011;59402;48.396;-4.472;2023-01-05T17:51:33;15.55;;;2.60;;
41709;SDS011;59402;48.396;-4.472;2023-01-05T17:53:58;16.10;;;3.20;;
41709;SDS011;59402;48.396;-4.472;2023-01-05T17:56:24;15.57;;;2.70;;
41709;SDS011;59402;48.396;-4.472;2023-01-05T17:58:50;20.27;;;2.50;;
41709;SDS011;59402;48.396;-4.472;2023-01-05T18:01:17;21.20;;;3.40;;
41709;SDS011;59402;48.396;-4.472;2023-01-05T18:03:43;16.20;;;2.60;;
41709;SDS011;59402;48.396;-4.472;2023-01-05T18:06:09;21.95;;;2.65;;
41709;SDS011;59402;48.396;-4.472;2023-01-05T18:08:35;19.10;;;2.25;;
41709;SDS011;59402;48.396;-4.472;2023-01-05T18:11:02;15.68;;;2.50;;
41709;SDS011;59402;48.396;-4.472;2023-01-05T18:13:29;16.33;;;2.70;;
41709;SDS011;59402;48.396;-4.472;2023-01-05T18:15:55;17.35;;;2.67;;
41709;SDS011;59402;48.396;-4.472;2023-01-05T18:18:21;19.00;;;2.45;;